sensor_id;sensor_type;location;lat;lon;timestamp;pressure;altitude;pressure_sealevel;temperature;humidity
61571;BME280;47463;49.884;10.010;2022-07-30T00:00:01;101947;;;15.4;87
61571;BME280;47463;49.884;10.010;2022-07-30T00:05:01;101936;;;15.4;87
61571;BME280;47463;49.884;10.010;2022-07-30T00:10:01;101933;;;15.4;87
61571;BME280;47463;49.884;10.010;2022-07-30T00:15:01;101930;;;15.2;86
61571;BME280;47463;49.884;10.010;2022-07-30T00:20:01;101936;;;15.1;86
61571;BME280;47463;49.884;10.010;2022-07-30T00:25:01;101940;;;15.1;86
61571;BME280;47463;49.884;10.010;2022-07-30T00:30:01;101944;;;15.1;86
61571;BME280;47463;49.884;10.010;2022-07-30T00:35:01;101949;;;15;86
61571;BME280;47463;49.884;10.010;2022-07-30T00:40:01;101957;;;14.9;86
61571;BME280;47463;49.884;10.010;2022-07-30T00:45:01;101956;;;14.9;86
61571;BME280;47463;49.884;10.010;2022-07-30T00:50:01;101944;;;14.9;86
61571;BME280;47463;49.884;10.010;2022-07-30T00:55:01;101948;;;14.9;86
61571;BME280;47463;49.884;10.010;2022-07-30T01:00:01;101951;;;14.7;86
61571;BME280;47463;49.884;10.010;2022-07-30T01:05:01;101953;;;14.6;86
61571;BME280;47463;49.884;10.010;2022-07-30T01:10:01;101958;;;14.6;86
61571;BME280;47463;49.884;10.010;2022-07-30T01:15:01;101964;;;14.4;86
61571;BME280;47463;49.884;10.010;2022-07-30T01:20:02;101961;;;14.4;86
61571;BME280;47463;49.884;10.010;2022-07-30T01:25:04;101961;;;14.3;86
61571;BME280;47463;49.884;10.010;2022-07-30T01:30:02;101960;;;14.2;86
61571;BME280;47463;49.884;10.010;2022-07-30T01:35:01;101971;;;14.1;87
61571;BME280;47463;49.884;10.010;2022-07-30T01:40:01;101965;;;14.3;87
61571;BME280;47463;49.884;10.010;2022-07-30T01:45:01;101973;;;14.3;87
61571;BME280;47463;49.884;10.010;2022-07-30T01:50:02;101983;;;14.2;87
61571;BME280;47463;49.884;10.010;2022-07-30T01:55:01;101979;;;14;87
61571;BME280;47463;49.884;10.010;2022-07-30T02:00:03;101979;;;14;87
61571;BME280;47463;49.884;10.010;2022-07-30T02:05:01;101974;;;14;87
61571;BME280;47463;49.884;10.010;2022-07-30T02:10:03;101973;;;14;87
61571;BME280;47463;49.884;10.010;2022-07-30T02:15:05;101970;;;13.9;87
61571;BME280;47463;49.884;10.010;2022-07-30T02:20:01;101977;;;13.8;87
61571;BME280;47463;49.884;10.010;2022-07-30T02:25:01;101965;;;13.8;87
61571;BME280;47463;49.884;10.010;2022-07-30T02:30:01;101966;;;13.8;87
61571;BME280;47463;49.884;10.010;2022-07-30T02:35:03;101954;;;13.7;87
61571;BME280;47463;49.884;10.010;2022-07-30T02:40:01;101967;;;13.6;87
61571;BME280;47463;49.884;10.010;2022-07-30T02:45:01;101976;;;13.6;88
61571;BME280;47463;49.884;10.010;2022-07-30T02:50:01;101980;;;13.7;88
61571;BME280;47463;49.884;10.010;2022-07-30T02:55:01;101974;;;13.7;88
61571;BME280;47463;49.884;10.010;2022-07-30T03:00:01;101995;;;13.5;88
61571;BME280;47463;49.884;10.010;2022-07-30T03:05:01;101993;;;13.7;88
61571;BME280;47463;49.884;10.010;2022-07-30T03:10:01;101996;;;13.6;88
61571;BME280;47463;49.884;10.010;2022-07-30T03:15:01;101992;;;13.7;88
61571;BME280;47463;49.884;10.010;2022-07-30T03:20:01;101999;;;13.9;88
61571;BME280;47463;49.884;10.010;2022-07-30T03:25:01;102003;;;14;88
61571;BME280;47463;49.884;10.010;2022-07-30T03:30:01;102012;;;14;88
61571;BME280;47463;49.884;10.010;2022-07-30T03:35:01;102022;;;14;88
61571;BME280;47463;49.884;10.010;2022-07-30T03:40:01;102028;;;14;88
61571;BME280;47463;49.884;10.010;2022-07-30T03:45:02;102031;;;14;88
61571;BME280;47463;49.884;10.010;2022-07-30T03:50:01;102029;;;14;88
61571;BME280;47463;49.884;10.010;2022-07-30T03:55:01;102036;;;14.1;88
61571;BME280;47463;49.884;10.010;2022-07-30T04:00:01;102044;;;14.2;88
61571;BME280;47463;49.884;10.010;2022-07-30T04:05:01;102040;;;14.2;88
61571;BME280;47463;49.884;10.010;2022-07-30T04:10:01;102041;;;14.3;88
61571;BME280;47463;49.884;10.010;2022-07-30T04:15:01;102046;;;14.5;88
61571;BME280;47463;49.884;10.010;2022-07-30T04:20:02;102061;;;14.6;87
61571;BME280;47463;49.884;10.010;2022-07-30T04:25:01;102064;;;14.7;87
61571;BME280;47463;49.884;10.010;2022-07-30T04:30:01;102065;;;14.7;87
61571;BME280;47463;49.884;10.010;2022-07-30T04:35:01;102062;;;14.8;87
61571;BME280;47463;49.884;10.010;2022-07-30T04:40:01;102069;;;14.8;87
61571;BME280;47463;49.884;10.010;2022-07-30T04:45:01;102067;;;14.8;87
61571;BME280;47463;49.884;10.010;2022-07-30T04:50:01;102073;;;14.8;87
61571;BME280;47463;49.884;10.010;2022-07-30T04:55:01;102075;;;14.9;86
61571;BME280;47463;49.884;10.010;2022-07-30T05:00:01;102080;;;15;86
61571;BME280;47463;49.884;10.010;2022-07-30T05:05:01;102077;;;15;86
61571;BME280;47463;49.884;10.010;2022-07-30T05:10:01;102074;;;15.1;86
61571;BME280;47463;49.884;10.010;2022-07-30T05:15:01;102076;;;15.1;86
61571;BME280;47463;49.884;10.010;2022-07-30T05:20:01;102071;;;15.1;86
61571;BME280;47463;49.884;10.010;2022-07-30T05:25:01;102072;;;15.2;86
61571;BME280;47463;49.884;10.010;2022-07-30T05:30:01;102075;;;15.3;86
61571;BME280;47463;49.884;10.010;2022-07-30T05:35:01;102087;;;15.3;86
61571;BME280;47463;49.884;10.010;2022-07-30T05:40:01;102088;;;15.2;86
61571;BME280;47463;49.884;10.010;2022-07-30T05:45:01;102088;;;15.3;86
61571;BME280;47463;49.884;10.010;2022-07-30T05:50:01;102087;;;15.2;86
61571;BME280;47463;49.884;10.010;2022-07-30T05:55:01;102081;;;15.1;86
61571;BME280;47463;49.884;10.010;2022-07-30T06:00:01;102083;;;15.2;86
61571;BME280;47463;49.884;10.010;2022-07-30T06:05:01;102081;;;15.2;86
61571;BME280;47463;49.884;10.010;2022-07-30T06:10:01;102081;;;15.2;86
61571;BME280;47463;49.884;10.010;2022-07-30T06:15:01;102083;;;15.4;86
61571;BME280;47463;49.884;10.010;2022-07-30T06:20:01;102076;;;15.7;86
61571;BME280;47463;49.884;10.010;2022-07-30T06:25:01;102077;;;16;86
61571;BME280;47463;49.884;10.010;2022-07-30T06:30:01;102083;;;15.9;85
61571;BME280;47463;49.884;10.010;2022-07-30T06:35:01;102087;;;16.2;85
61571;BME280;47463;49.884;10.010;2022-07-30T06:40:01;102092;;;16.5;84
61571;BME280;47463;49.884;10.010;2022-07-30T06:45:01;102082;;;17.2;83
61571;BME280;47463;49.884;10.010;2022-07-30T06:50:01;102079;;;17.6;81
61571;BME280;47463;49.884;10.010;2022-07-30T06:55:01;102081;;;17.9;79
61571;BME280;47463;49.884;10.010;2022-07-30T07:00:01;102082;;;18.1;79
61571;BME280;47463;49.884;10.010;2022-07-30T07:05:01;102082;;;18.2;79
61571;BME280;47463;49.884;10.010;2022-07-30T07:10:01;102084;;;18;79
61571;BME280;47463;49.884;10.010;2022-07-30T07:15:01;102080;;;18.3;79
61571;BME280;47463;49.884;10.010;2022-07-30T07:20:01;102072;;;18.4;78
61571;BME280;47463;49.884;10.010;2022-07-30T07:25:01;102069;;;18.6;77
61571;BME280;47463;49.884;10.010;2022-07-30T07:30:01;102071;;;18.3;77
61571;BME280;47463;49.884;10.010;2022-07-30T07:35:01;102078;;;18.1;78
61571;BME280;47463;49.884;10.010;2022-07-30T07:40:01;102070;;;18.4;78
61571;BME280;47463;49.884;10.010;2022-07-30T07:45:01;102068;;;18.5;78
61571;BME280;47463;49.884;10.010;2022-07-30T07:50:01;102061;;;19;76
61571;BME280;47463;49.884;10.010;2022-07-30T07:55:01;102058;;;19.6;75
61571;BME280;47463;49.884;10.010;2022-07-30T08:00:01;102060;;;20;74
61571;BME280;47463;49.884;10.010;2022-07-30T08:05:01;102054;;;19.2;74
61571;BME280;47463;49.884;10.010;2022-07-30T08:10:01;102051;;;19.2;73
61571;BME280;47463;49.884;10.010;2022-07-30T08:15:01;102057;;;19.3;74
61571;BME280;47463;49.884;10.010;2022-07-30T08:20:01;102055;;;19.3;74
61571;BME280;47463;49.884;10.010;2022-07-30T08:25:01;102062;;;19.6;74
61571;BME280;47463;49.884;10.010;2022-07-30T08:30:02;102066;;;19.4;74
61571;BME280;47463;49.884;10.010;2022-07-30T08:35:01;102070;;;19.4;74
61571;BME280;47463;49.884;10.010;2022-07-30T08:40:01;102067;;;19.7;73
61571;BME280;47463;49.884;10.010;2022-07-30T08:45:01;102067;;;19.8;72
61571;BME280;47463;49.884;10.010;2022-07-30T08:50:01;102064;;;20.2;71
61571;BME280;47463;49.884;10.010;2022-07-30T08:55:01;102065;;;20.7;70
61571;BME280;47463;49.884;10.010;2022-07-30T09:00:01;102062;;;20.4;70
61571;BME280;47463;49.884;10.010;2022-07-30T09:05:01;102062;;;20.5;69
61571;BME280;47463;49.884;10.010;2022-07-30T09:10:01;102058;;;20.7;68
61571;BME280;47463;49.884;10.010;2022-07-30T09:15:02;102058;;;21.1;67
61571;BME280;47463;49.884;10.010;2022-07-30T09:20:01;102056;;;20.8;67
61571;BME280;47463;49.884;10.010;2022-07-30T09:25:01;102051;;;21.2;67
61571;BME280;47463;49.884;10.010;2022-07-30T09:30:01;102049;;;21.2;67
61571;BME280;47463;49.884;10.010;2022-07-30T09:35:10;102052;;;21.2;67
61571;BME280;47463;49.884;10.010;2022-07-30T09:40:09;102042;;;21.6;65
61571;BME280;47463;49.884;10.010;2022-07-30T09:45:04;102039;;;21.6;65
61571;BME280;47463;49.884;10.010;2022-07-30T09:50:02;102055;;;21.9;64
61571;BME280;47463;49.884;10.010;2022-07-30T09:55:01;102053;;;22.1;65
61571;BME280;47463;49.884;10.010;2022-07-30T10:00:14;102044;;;21.9;64
61571;BME280;47463;49.884;10.010;2022-07-30T10:05:08;102043;;;21.9;64
61571;BME280;47463;49.884;10.010;2022-07-30T10:10:01;102052;;;22.6;63
61571;BME280;47463;49.884;10.010;2022-07-30T10:15:01;102052;;;22;63
61571;BME280;47463;49.884;10.010;2022-07-30T10:20:01;102029;;;22.8;62
61571;BME280;47463;49.884;10.010;2022-07-30T10:25:01;102041;;;22.5;62
61571;BME280;47463;49.884;10.010;2022-07-30T10:30:01;102028;;;23.1;62
61571;BME280;47463;49.884;10.010;2022-07-30T10:35:01;102031;;;22.8;61
61571;BME280;47463;49.884;10.010;2022-07-30T10:40:03;102029;;;21.8;62
61571;BME280;47463;49.884;10.010;2022-07-30T10:45:02;102032;;;21.7;62
61571;BME280;47463;49.884;10.010;2022-07-30T10:50:09;102020;;;22.1;61
61571;BME280;47463;49.884;10.010;2022-07-30T10:55:01;102016;;;22.5;58
61571;BME280;47463;49.884;10.010;2022-07-30T11:00:08;102006;;;23.2;58
61571;BME280;47463;49.884;10.010;2022-07-30T11:05:32;102008;;;22.7;57
61571;BME280;47463;49.884;10.010;2022-07-30T11:10:01;101998;;;22.9;56
61571;BME280;47463;49.884;10.010;2022-07-30T11:15:01;101991;;;23.1;55
61571;BME280;47463;49.884;10.010;2022-07-30T11:20:08;101994;;;23.2;56
61571;BME280;47463;49.884;10.010;2022-07-30T11:25:01;102000;;;23;55
61571;BME280;47463;49.884;10.010;2022-07-30T11:30:01;102003;;;23.3;56
61571;BME280;47463;49.884;10.010;2022-07-30T11:35:17;101973;;;23.7;52
61571;BME280;47463;49.884;10.010;2022-07-30T11:40:04;101972;;;23.8;51
61571;BME280;47463;49.884;10.010;2022-07-30T11:45:32;101948;;;23.9;49
61571;BME280;47463;49.884;10.010;2022-07-30T11:50:01;101945;;;24.1;47
61571;BME280;47463;49.884;10.010;2022-07-30T11:55:01;101936;;;24.2;45
61571;BME280;47463;49.884;10.010;2022-07-30T12:00:01;101945;;;24.7;44
61571;BME280;47463;49.884;10.010;2022-07-30T12:05:01;101951;;;24.4;45
61571;BME280;47463;49.884;10.010;2022-07-30T12:10:17;101959;;;24.5;45
61571;BME280;47463;49.884;10.010;2022-07-30T12:15:01;101962;;;25.1;45
61571;BME280;47463;49.884;10.010;2022-07-30T12:20:01;101971;;;24.8;45
61571;BME280;47463;49.884;10.010;2022-07-30T12:25:04;101971;;;24.6;46
61571;BME280;47463;49.884;10.010;2022-07-30T12:30:01;101973;;;24.7;46
61571;BME280;47463;49.884;10.010;2022-07-30T12:35:01;101978;;;25.1;46
61571;BME280;47463;49.884;10.010;2022-07-30T12:40:05;101994;;;24.8;47
61571;BME280;47463;49.884;10.010;2022-07-30T12:45:01;101992;;;25.1;47
61571;BME280;47463;49.884;10.010;2022-07-30T12:50:01;101974;;;25.4;45
61571;BME280;47463;49.884;10.010;2022-07-30T12:55:02;101963;;;25.3;45
61571;BME280;47463;49.884;10.010;2022-07-30T13:00:01;101973;;;25.5;45
61571;BME280;47463;49.884;10.010;2022-07-30T13:05:01;101956;;;25.1;45
61571;BME280;47463;49.884;10.010;2022-07-30T13:10:08;101963;;;24.8;45
61571;BME280;47463;49.884;10.010;2022-07-30T13:15:01;101964;;;25.4;44
61571;BME280;47463;49.884;10.010;2022-07-30T13:20:01;101962;;;25.2;44
61571;BME280;47463;49.884;10.010;2022-07-30T13:25:01;101960;;;25.3;45
61571;BME280;47463;49.884;10.010;2022-07-30T13:30:01;101960;;;25.5;44
61571;BME280;47463;49.884;10.010;2022-07-30T13:35:01;101949;;;25.2;44
61571;BME280;47463;49.884;10.010;2022-07-30T13:40:01;101955;;;25.8;43
61571;BME280;47463;49.884;10.010;2022-07-30T13:45:01;101951;;;25.7;43
61571;BME280;47463;49.884;10.010;2022-07-30T13:50:01;101939;;;25;44
61571;BME280;47463;49.884;10.010;2022-07-30T13:55:01;101934;;;25;42
61571;BME280;47463;49.884;10.010;2022-07-30T14:00:01;101928;;;25.2;42
61571;BME280;47463;49.884;10.010;2022-07-30T14:05:01;101924;;;25.6;43
61571;BME280;47463;49.884;10.010;2022-07-30T14:10:01;101923;;;26;41
61571;BME280;47463;49.884;10.010;2022-07-30T14:15:01;101919;;;26.3;41
61571;BME280;47463;49.884;10.010;2022-07-30T14:25:01;101921;;;25.6;41
61571;BME280;47463;49.884;10.010;2022-07-30T14:30:01;101907;;;25.8;41
61571;BME280;47463;49.884;10.010;2022-07-30T14:35:01;101906;;;25.3;42
61571;BME280;47463;49.884;10.010;2022-07-30T14:40:01;101916;;;25.4;42
61571;BME280;47463;49.884;10.010;2022-07-30T14:45:01;101915;;;25.9;42
61571;BME280;47463;49.884;10.010;2022-07-30T14:50:01;101917;;;25.4;43
61571;BME280;47463;49.884;10.010;2022-07-30T14:55:01;101915;;;25.7;42
61571;BME280;47463;49.884;10.010;2022-07-30T15:00:01;101915;;;26.1;42
61571;BME280;47463;49.884;10.010;2022-07-30T15:05:01;101913;;;26.3;41
61571;BME280;47463;49.884;10.010;2022-07-30T15:10:01;101893;;;26.1;41
61571;BME280;47463;49.884;10.010;2022-07-30T15:15:01;101904;;;26.1;41
61571;BME280;47463;49.884;10.010;2022-07-30T15:20:01;101923;;;26.4;40
61571;BME280;47463;49.884;10.010;2022-07-30T15:25:01;101919;;;26.4;40
61571;BME280;47463;49.884;10.010;2022-07-30T15:30:01;101909;;;26.4;40
61571;BME280;47463;49.884;10.010;2022-07-30T15:35:01;101911;;;26;40
61571;BME280;47463;49.884;10.010;2022-07-30T15:40:01;101910;;;25.9;41
61571;BME280;47463;49.884;10.010;2022-07-30T15:45:01;101910;;;25.8;40
61571;BME280;47463;49.884;10.010;2022-07-30T15:50:01;101908;;;26;40
61571;BME280;47463;49.884;10.010;2022-07-30T15:55:01;101919;;;25.9;41
61571;BME280;47463;49.884;10.010;2022-07-30T16:00:01;101914;;;26.1;40
61571;BME280;47463;49.884;10.010;2022-07-30T16:05:01;101914;;;26.3;40
61571;BME280;47463;49.884;10.010;2022-07-30T16:10:01;101918;;;26.2;40
61571;BME280;47463;49.884;10.010;2022-07-30T16:15:01;101906;;;26.3;40
61571;BME280;47463;49.884;10.010;2022-07-30T16:20:01;101929;;;26.3;39
61571;BME280;47463;49.884;10.010;2022-07-30T16:25:01;101965;;;26.1;43
61571;BME280;47463;49.884;10.010;2022-07-30T16:30:01;102011;;;24.5;52
61571;BME280;47463;49.884;10.010;2022-07-30T16:35:01;102020;;;24;54
61571;BME280;47463;49.884;10.010;2022-07-30T16:40:01;102031;;;23.5;55
61571;BME280;47463;49.884;10.010;2022-07-30T16:45:01;102038;;;23.4;55
61571;BME280;47463;49.884;10.010;2022-07-30T16:50:01;102048;;;23.5;55
61571;BME280;47463;49.884;10.010;2022-07-30T16:55:01;102055;;;23;56
61571;BME280;47463;49.884;10.010;2022-07-30T17:00:01;102062;;;22.8;57
61571;BME280;47463;49.884;10.010;2022-07-30T17:05:01;102060;;;22.6;58
61571;BME280;47463;49.884;10.010;2022-07-30T17:10:01;102071;;;22.4;59
61571;BME280;47463;49.884;10.010;2022-07-30T17:15:01;102081;;;22.4;59
61571;BME280;47463;49.884;10.010;2022-07-30T17:20:01;102084;;;22.2;60
61571;BME280;47463;49.884;10.010;2022-07-30T17:30:01;102091;;;22.3;60
61571;BME280;47463;49.884;10.010;2022-07-30T17:35:01;102095;;;22.2;60
61571;BME280;47463;49.884;10.010;2022-07-30T17:40:01;102099;;;22.3;60
61571;BME280;47463;49.884;10.010;2022-07-30T17:45:01;102102;;;22.4;60
61571;BME280;47463;49.884;10.010;2022-07-30T17:50:01;102104;;;22.5;60
61571;BME280;47463;49.884;10.010;2022-07-30T17:55:01;102112;;;22.4;60
61571;BME280;47463;49.884;10.010;2022-07-30T18:00:01;102110;;;22.3;61
61571;BME280;47463;49.884;10.010;2022-07-30T18:05:01;102124;;;22.2;61
61571;BME280;47463;49.884;10.010;2022-07-30T18:10:01;102124;;;22.1;62
61571;BME280;47463;49.884;10.010;2022-07-30T18:15:01;102123;;;21.9;62
61571;BME280;47463;49.884;10.010;2022-07-30T18:20:01;102129;;;21.8;62
61571;BME280;47463;49.884;10.010;2022-07-30T18:25:01;102129;;;21.7;62
61571;BME280;47463;49.884;10.010;2022-07-30T18:30:01;102141;;;21.5;63
61571;BME280;47463;49.884;10.010;2022-07-30T18:35:01;102141;;;21.3;64
61571;BME280;47463;49.884;10.010;2022-07-30T18:40:01;102155;;;21;65
61571;BME280;47463;49.884;10.010;2022-07-30T18:45:01;102159;;;20.9;65
61571;BME280;47463;49.884;10.010;2022-07-30T18:50:01;102162;;;20.8;65
61571;BME280;47463;49.884;10.010;2022-07-30T18:55:01;102165;;;20.6;66
61571;BME280;47463;49.884;10.010;2022-07-30T19:00:01;102170;;;20.5;66
61571;BME280;47463;49.884;10.010;2022-07-30T19:05:01;102177;;;20.2;67
61571;BME280;47463;49.884;10.010;2022-07-30T19:10:01;102176;;;20;67
61571;BME280;47463;49.884;10.010;2022-07-30T19:15:01;102173;;;19.9;67
61571;BME280;47463;49.884;10.010;2022-07-30T19:20:01;102176;;;19.7;68
61571;BME280;47463;49.884;10.010;2022-07-30T19:25:01;102177;;;19.6;68
61571;BME280;47463;49.884;10.010;2022-07-30T19:30:01;102179;;;19.3;69
61571;BME280;47463;49.884;10.010;2022-07-30T19:35:01;102182;;;19;69
61571;BME280;47463;49.884;10.010;2022-07-30T19:40:01;102188;;;18.6;70
61571;BME280;47463;49.884;10.010;2022-07-30T19:45:01;102181;;;18.6;70
61571;BME280;47463;49.884;10.010;2022-07-30T19:50:01;102187;;;18.2;71
61571;BME280;47463;49.884;10.010;2022-07-30T19:55:01;102200;;;18;71
61571;BME280;47463;49.884;10.010;2022-07-30T20:00:01;102200;;;18;72
61571;BME280;47463;49.884;10.010;2022-07-30T20:05:01;102202;;;18;72
61571;BME280;47463;49.884;10.010;2022-07-30T20:10:01;102201;;;17.9;72
61571;BME280;47463;49.884;10.010;2022-07-30T20:15:01;102215;;;17.9;72
61571;BME280;47463;49.884;10.010;2022-07-30T20:20:01;102212;;;17.8;73
61571;BME280;47463;49.884;10.010;2022-07-30T20:25:01;102212;;;17.7;73
61571;BME280;47463;49.884;10.010;2022-07-30T20:30:01;102222;;;17.5;74
61571;BME280;47463;49.884;10.010;2022-07-30T20:35:01;102228;;;17.3;75
61571;BME280;47463;49.884;10.010;2022-07-30T20:40:01;102246;;;17.1;75
61571;BME280;47463;49.884;10.010;2022-07-30T20:45:01;102245;;;17.1;75
61571;BME280;47463;49.884;10.010;2022-07-30T20:50:01;102238;;;16.8;76
61571;BME280;47463;49.884;10.010;2022-07-30T20:55:01;102243;;;16.8;76
61571;BME280;47463;49.884;10.010;2022-07-30T21:00:01;102241;;;16.4;76
61571;BME280;47463;49.884;10.010;2022-07-30T21:05:01;102245;;;16.4;76
61571;BME280;47463;49.884;10.010;2022-07-30T21:10:01;102246;;;16.2;77
61571;BME280;47463;49.884;10.010;2022-07-30T21:15:01;102241;;;16.2;77
61571;BME280;47463;49.884;10.010;2022-07-30T21:20:01;102243;;;16.1;77
61571;BME280;47463;49.884;10.010;2022-07-30T21:25:01;102241;;;15.9;77
61571;BME280;47463;49.884;10.010;2022-07-30T21:30:01;102246;;;15.7;77
61571;BME280;47463;49.884;10.010;2022-07-30T21:35:01;102230;;;15.8;77
61571;BME280;47463;49.884;10.010;2022-07-30T21:40:01;102238;;;15.7;77
61571;BME280;47463;49.884;10.010;2022-07-30T21:45:01;102243;;;15.6;78
61571;BME280;47463;49.884;10.010;2022-07-30T21:50:06;102257;;;15.5;78
61571;BME280;47463;49.884;10.010;2022-07-30T21:55:01;102254;;;15.4;78
61571;BME280;47463;49.884;10.010;2022-07-30T22:00:04;102250;;;15.5;78
61571;BME280;47463;49.884;10.010;2022-07-30T22:05:01;102255;;;15.4;78
61571;BME280;47463;49.884;10.010;2022-07-30T22:10:01;102250;;;15.2;79
61571;BME280;47463;49.884;10.010;2022-07-30T22:15:01;102251;;;15.3;79
61571;BME280;47463;49.884;10.010;2022-07-30T22:20:01;102259;;;15.2;79
61571;BME280;47463;49.884;10.010;2022-07-30T22:25:01;102254;;;15.2;79
61571;BME280;47463;49.884;10.010;2022-07-30T22:30:01;102256;;;15.2;80
61571;BME280;47463;49.884;10.010;2022-07-30T22:35:01;102258;;;15.2;80
61571;BME280;47463;49.884;10.010;2022-07-30T22:40:01;102264;;;15.2;80
61571;BME280;47463;49.884;10.010;2022-07-30T22:45:01;102263;;;15.3;80
61571;BME280;47463;49.884;10.010;2022-07-30T22:50:01;102261;;;15.3;79
61571;BME280;47463;49.884;10.010;2022-07-30T22:55:01;102263;;;15.3;80
61571;BME280;47463;49.884;10.010;2022-07-30T23:00:01;102261;;;15.3;80
61571;BME280;47463;49.884;10.010;2022-07-30T23:05:01;102259;;;15.2;80
61571;BME280;47463;49.884;10.010;2022-07-30T23:10:01;102258;;;15.5;80
61571;BME280;47463;49.884;10.010;2022-07-30T23:15:01;102256;;;15.6;79
61571;BME280;47463;49.884;10.010;2022-07-30T23:20:01;102255;;;15.6;79
61571;BME280;47463;49.884;10.010;2022-07-30T23:25:01;102251;;;15.5;79
61571;BME280;47463;49.884;10.010;2022-07-30T23:30:01;102250;;;15.5;79
61571;BME280;47463;49.884;10.010;2022-07-30T23:35:01;102242;;;15.5;79
61571;BME280;47463;49.884;10.010;2022-07-30T23:40:01;102247;;;15.5;80
61571;BME280;47463;49.884;10.010;2022-07-30T23:45:01;102245;;;15.5;79
61571;BME280;47463;49.884;10.010;2022-07-30T23:50:01;102247;;;15.4;80
61571;BME280;47463;49.884;10.010;2022-07-30T23:55:01;102245;;;15.4;80
